createdAt,value
2024-05-09T00:00:18.190Z,99966.00
2024-05-09T00:01:24.069Z,99966.38
2024-05-09T00:02:25.930Z,99970.22
2024-05-09T00:03:27.722Z,99961.34
2024-05-09T00:04:29.548Z,99964.13
2024-05-09T00:05:31.560Z,99959.94
2024-05-09T00:06:33.304Z,99957.66
2024-05-09T00:07:35.010Z,99962.94
2024-05-09T00:08:36.781Z,99953.22
2024-05-09T00:09:38.479Z,99955.72
2024-05-09T00:10:41.136Z,99961.72
2024-05-09T00:11:43.450Z,99961.59
2024-05-09T00:12:45.218Z,99957.28
2024-05-09T00:13:47.439Z,99955.38
2024-05-09T00:14:49.190Z,99961.94
2024-05-09T00:15:50.937Z,99954.41
2024-05-09T00:16:52.791Z,99960.63
2024-05-09T00:17:54.832Z,99963.97
2024-05-09T00:18:56.674Z,99961.00
2024-05-09T00:19:58.531Z,99957.75
2024-05-09T00:21:00.494Z,99956.22
2024-05-09T00:22:02.434Z,99958.72
2024-05-09T00:23:04.331Z,99954.41
2024-05-09T00:24:06.220Z,99954.78
2024-05-09T00:25:07.951Z,99955.88
2024-05-09T00:26:09.735Z,99963.44
2024-05-09T00:27:13.317Z,99955.38
2024-05-09T00:28:15.244Z,99959.94
2024-05-09T00:29:16.959Z,99953.59
2024-05-09T00:30:27.757Z,99961.63
2024-05-09T00:31:34.411Z,99959.94
2024-05-09T00:32:36.386Z,99962.78
2024-05-09T00:33:38.288Z,99971.16
2024-05-09T00:34:40.111Z,99963.13
2024-05-09T00:35:42.005Z,99967.44
2024-05-09T00:36:43.772Z,99960.72
2024-05-09T00:37:45.455Z,99970.81
2024-05-09T00:38:47.229Z,99968.19
2024-05-09T00:39:48.928Z,99961.63
2024-05-09T00:40:50.719Z,99967.16
2024-05-09T00:41:52.520Z,99968.56
2024-05-09T00:42:54.251Z,99969.06
2024-05-09T00:43:55.955Z,99957.81
2024-05-09T00:44:57.707Z,99971.91
2024-05-09T00:45:59.762Z,99961.97
2024-05-09T00:47:01.595Z,99968.19
2024-05-09T00:48:05.606Z,99964.75
2024-05-09T00:49:08.727Z,99971.09
2024-05-09T00:50:15.965Z,99966.91
2024-05-09T00:51:24.311Z,99966.28
2024-05-09T00:52:27.533Z,99969.28
2024-05-09T00:53:29.590Z,99967.38
2024-05-09T00:54:31.582Z,99971.22
2024-05-09T00:55:34.907Z,99970.13
2024-05-09T00:56:36.722Z,99974.56
2024-05-09T00:57:38.673Z,99973.22
2024-05-09T00:58:40.656Z,99971.69
2024-05-09T00:59:42.603Z,99976.47
2024-05-09T01:00:44.748Z,99972.66
2024-05-09T01:01:47.335Z,99973.97
2024-05-09T01:02:49.162Z,99969.53
2024-05-09T01:03:51.443Z,99968.09
2024-05-09T01:04:53.539Z,99964.00
2024-05-09T01:05:55.552Z,99966.78
2024-05-09T01:06:57.508Z,99979.00
2024-05-09T01:07:59.279Z,99969.19
2024-05-09T01:09:01.119Z,99968.47
2024-05-09T01:10:03.252Z,99967.50
2024-05-09T01:11:07.240Z,99971.94
2024-05-09T01:12:09.228Z,99970.97
2024-05-09T01:13:11.212Z,99974.06
2024-05-09T01:14:13.054Z,99967.75
2024-05-09T01:15:14.922Z,99970.28
2024-05-09T01:16:16.635Z,99966.78
2024-05-09T01:17:18.769Z,99974.44
2024-05-09T01:18:20.753Z,99973.00
2024-05-09T01:19:33.102Z,99977.31
2024-05-09T01:21:41.238Z,99976.47
2024-05-09T01:22:44.534Z,99977.56
2024-05-09T01:23:46.297Z,99978.28
2024-05-09T01:24:47.981Z,99978.88
2024-05-09T01:25:49.728Z,99984.97
2024-05-09T01:26:51.581Z,99983.50
2024-05-09T01:27:53.296Z,99980.28
2024-05-09T01:28:55.134Z,99985.19
2024-05-09T01:29:56.850Z,99975.25
2024-05-09T01:30:58.551Z,99985.44
2024-05-09T01:32:00.316Z,99987.94
2024-05-09T01:33:02.381Z,99978.38
2024-05-09T01:34:04.389Z,99985.88
2024-05-09T01:35:06.464Z,99985.78
2024-05-09T01:36:08.669Z,99992.72
2024-05-09T01:37:10.437Z,99985.78
2024-05-09T01:38:12.275Z,99987.44
2024-05-09T01:39:14.110Z,99992.59
2024-05-09T01:40:21.977Z,99989.13
2024-05-09T01:41:26.708Z,99991.50
2024-05-09T01:42:28.526Z,99986.25
2024-05-09T01:43:30.244Z,99993.22
2024-05-09T01:44:31.996Z,99985.91
2024-05-09T01:45:33.712Z,99988.19
2024-05-09T01:46:35.456Z,99986.03
2024-05-09T01:47:37.455Z,99986.03
2024-05-09T01:48:39.369Z,99990.81
2024-05-09T01:49:41.173Z,99988.16
2024-05-09T01:50:43.625Z,99996.31
2024-05-09T01:51:45.595Z,99989.72
2024-05-09T01:52:47.334Z,99989.59
2024-05-09T01:53:49.248Z,99986.00
2024-05-09T01:54:51.117Z,99997.25
2024-05-09T01:55:52.912Z,99995.69
2024-05-09T01:56:54.591Z,99999.41
2024-05-09T01:57:56.294Z,99988.75
2024-05-09T01:58:58.089Z,100001.91
2024-05-09T01:59:59.888Z,100003.34
2024-05-09T02:01:02.080Z,100000.44
2024-05-09T02:02:04.262Z,100001.25
2024-05-09T02:03:09.309Z,99995.78
2024-05-09T02:04:11.670Z,100003.41
2024-05-09T02:05:13.639Z,100001.75
2024-05-09T02:06:15.444Z,100003.53
2024-05-09T02:07:17.791Z,100008.72
2024-05-09T02:08:22.060Z,100002.38
2024-05-09T02:09:23.929Z,100005.22
2024-05-09T02:10:32.066Z,100002.09
2024-05-09T02:11:44.061Z,100004.50
2024-05-09T02:12:45.801Z,100002.81
2024-05-09T02:13:47.511Z,99996.31
2024-05-09T02:14:49.257Z,99996.06
2024-05-09T02:15:51.093Z,100004.91
2024-05-09T02:16:52.777Z,100010.06
2024-05-09T02:17:54.756Z,99997.03
2024-05-09T02:18:56.761Z,100006.81
2024-05-09T02:19:58.513Z,99998.31
2024-05-09T02:21:00.497Z,99996.97
2024-05-09T02:22:02.335Z,100004.66
2024-05-09T02:23:05.299Z,100001.28
2024-05-09T02:24:07.460Z,99998.88
2024-05-09T02:25:09.206Z,100004.38
2024-05-09T02:26:10.976Z,99998.38
2024-05-09T02:27:12.723Z,100003.19
2024-05-09T02:28:14.442Z,100000.53
2024-05-09T02:29:16.200Z,100002.16
2024-05-09T02:30:26.222Z,99997.06
2024-05-09T02:31:37.519Z,99997.19
2024-05-09T02:32:39.473Z,99998.16
2024-05-09T02:33:41.403Z,100000.31
2024-05-09T02:34:43.218Z,99998.31
2024-05-09T02:35:44.968Z,100003.88
2024-05-09T02:36:46.793Z,99997.44
2024-05-09T02:37:48.540Z,100002.47
2024-05-09T02:38:50.329Z,99996.16
2024-05-09T02:39:52.102Z,100003.56
2024-05-09T02:40:53.858Z,100003.47
2024-05-09T02:41:55.579Z,100000.63
2024-05-09T02:42:57.287Z,100003.03
2024-05-09T02:43:59.081Z,100002.06
2024-05-09T02:45:00.895Z,100005.19
2024-05-09T02:46:02.585Z,100008.66
2024-05-09T02:47:04.492Z,100002.69
2024-05-09T02:48:07.347Z,100009.44
2024-05-09T02:49:09.314Z,100000.16
2024-05-09T02:51:15.092Z,100005.41
2024-05-09T02:52:18.341Z,100008.53
2024-05-09T02:53:20.189Z,100010.00
2024-05-09T02:54:21.946Z,100007.56
2024-05-09T02:55:23.656Z,100009.09
2024-05-09T02:56:25.447Z,100010.03
2024-05-09T02:57:27.221Z,100007.78
2024-05-09T02:58:28.939Z,100013.22
2024-05-09T02:59:30.708Z,100006.69
2024-05-09T03:00:38.557Z,100011.94
2024-05-09T03:01:43.019Z,100003.50
2024-05-09T03:02:45.152Z,100007.72
2024-05-09T03:03:47.160Z,100007.50
2024-05-09T03:04:49.161Z,100016.97
2024-05-09T03:05:51.073Z,100019.28
2024-05-09T03:06:52.889Z,100005.41
2024-05-09T03:07:54.651Z,100009.41
2024-05-09T03:08:56.376Z,100009.63
2024-05-09T03:09:58.097Z,100013.09
2024-05-09T03:10:59.808Z,100015.22
2024-05-09T03:12:01.734Z,100013.22
2024-05-09T03:13:11.894Z,100007.09
2024-05-09T03:14:18.336Z,100008.78
2024-05-09T03:15:20.205Z,100007.31
2024-05-09T03:16:21.916Z,100004.47
2024-05-09T03:17:23.823Z,100006.59
2024-05-09T03:18:25.771Z,100004.91
2024-05-09T03:19:27.648Z,100011.13
2024-05-09T03:20:34.166Z,100002.28
2024-05-09T03:21:40.655Z,100003.13
2024-05-09T03:22:42.404Z,100009.31
2024-05-09T03:23:44.269Z,100005.25
2024-05-09T03:24:46.081Z,100004.91
2024-05-09T03:25:48.100Z,100012.19
2024-05-09T03:26:49.838Z,100003.16
2024-05-09T03:27:52.469Z,100002.72
2024-05-09T03:28:54.218Z,100008.09
2024-05-09T03:29:55.960Z,100008.50
2024-05-09T03:30:57.663Z,100008.41
2024-05-09T03:32:00.281Z,100009.13
2024-05-09T03:33:02.262Z,100011.13
2024-05-09T03:34:04.344Z,100009.28
2024-05-09T03:35:06.829Z,100017.03
2024-05-09T03:36:11.078Z,100013.25
2024-05-09T03:37:14.044Z,100015.06
2024-05-09T03:38:15.940Z,100016.41
2024-05-09T03:39:17.788Z,100021.44
2024-05-09T03:40:23.702Z,100017.88
2024-05-09T03:41:28.236Z,100018.41
2024-05-09T03:42:30.005Z,100018.41
2024-05-09T03:43:31.711Z,100023.97
2024-05-09T03:44:33.462Z,100023.97
2024-05-09T03:45:35.222Z,100013.88
2024-05-09T03:46:40.178Z,100017.69
2024-05-09T03:47:42.336Z,100014.31
2024-05-09T03:48:44.400Z,100013.47
2024-05-09T03:49:46.253Z,100016.94
2024-05-09T03:50:48.482Z,100014.22
2024-05-09T03:51:50.272Z,100011.19
2024-05-09T03:52:52.056Z,100011.28
2024-05-09T03:53:53.813Z,100019.66
2024-05-09T03:54:55.513Z,100019.78
2024-05-09T03:55:57.301Z,100018.53
2024-05-09T03:56:59.128Z,100017.78
2024-05-09T03:58:00.911Z,100021.97
2024-05-09T03:59:02.676Z,100030.59
2024-05-09T04:00:07.434Z,100021.66
2024-05-09T04:01:16.640Z,100030.47
2024-05-09T04:02:18.553Z,100026.06
2024-05-09T04:03:20.652Z,100033.72
2024-05-09T04:04:22.717Z,100032.56
2024-05-09T04:05:24.561Z,100021.00
2024-05-09T04:06:26.804Z,100034.16
2024-05-09T04:07:28.536Z,100032.16
2024-05-09T04:08:30.286Z,100031.09
2024-05-09T04:09:32.057Z,100036.25
2024-05-09T04:10:35.042Z,100038.53
2024-05-09T04:11:37.308Z,100035.72
2024-05-09T04:12:39.241Z,100040.66
2024-05-09T04:13:40.943Z,100039.81
2024-05-09T04:14:42.802Z,100045.16
2024-05-09T04:15:44.545Z,100041.25
2024-05-09T04:16:46.387Z,100037.84
2024-05-09T04:17:48.248Z,100043.00
2024-05-09T04:18:50.506Z,100035.63
2024-05-09T04:19:52.921Z,100046.34
2024-05-09T04:20:54.725Z,100045.25
2024-05-09T04:21:56.506Z,100051.88
2024-05-09T04:22:58.259Z,100047.13
2024-05-09T04:23:59.979Z,100050.91
2024-05-09T04:25:01.755Z,100049.84
2024-05-09T04:26:03.663Z,100053.06
2024-05-09T04:27:05.481Z,100047.94
2024-05-09T04:28:07.404Z,100054.75
2024-05-09T04:29:09.195Z,100050.13
2024-05-09T04:30:18.553Z,100045.81
2024-05-09T04:31:23.532Z,100047.03
2024-05-09T04:32:25.511Z,100051.25
2024-05-09T04:33:27.563Z,100052.78
2024-05-09T04:34:29.513Z,100051.03
2024-05-09T04:35:31.443Z,100048.50
2024-05-09T04:36:33.209Z,100057.00
2024-05-09T04:37:34.905Z,100051.41
2024-05-09T04:38:36.716Z,100049.38
2024-05-09T04:39:38.506Z,100053.06
2024-05-09T04:40:40.233Z,100053.56
2024-05-09T04:41:41.898Z,100046.75
2024-05-09T04:42:43.645Z,100056.00
2024-05-09T04:43:45.347Z,100049.63
2024-05-09T04:44:47.119Z,100047.53
2024-05-09T04:45:48.952Z,100053.38
2024-05-09T04:46:50.754Z,100046.09
2024-05-09T04:47:53.965Z,100043.34
2024-05-09T04:48:55.791Z,100051.16
2024-05-09T04:49:57.491Z,100053.31
2024-05-09T04:51:01.716Z,100052.09
2024-05-09T04:52:03.548Z,100052.72
2024-05-09T04:53:06.703Z,100047.69
2024-05-09T04:54:15.764Z,100061.47
2024-05-09T04:55:25.073Z,100065.44
2024-05-09T04:56:26.857Z,100060.88
2024-05-09T04:57:28.647Z,100063.91
2024-05-09T04:58:30.414Z,100061.97
2024-05-09T04:59:32.212Z,100062.59
2024-05-09T05:00:36.876Z,100066.78
2024-05-09T05:01:40.697Z,100064.25
2024-05-09T05:02:42.581Z,100066.53
2024-05-09T05:03:44.628Z,100065.09
2024-05-09T05:04:46.591Z,100072.63
2024-05-09T05:05:48.584Z,100071.53
2024-05-09T05:06:50.332Z,100065.81
2024-05-09T05:07:52.173Z,100066.91
2024-05-09T05:08:53.930Z,100075.38
2024-05-09T05:09:55.626Z,100074.88
2024-05-09T05:10:57.458Z,100070.09
2024-05-09T05:11:59.473Z,100077.66
2024-05-09T05:13:01.267Z,100078.75
2024-05-09T05:14:03.130Z,100083.41
2024-05-09T05:15:05.183Z,100073.00
2024-05-09T05:16:07.156Z,100068.91
2024-05-09T05:17:09.022Z,100069.44
2024-05-09T05:18:10.922Z,100079.47
2024-05-09T05:19:16.009Z,100080.19
2024-05-09T05:20:27.362Z,100073.88
2024-05-09T05:21:34.722Z,100072.66
2024-05-09T05:22:36.471Z,100074.94
2024-05-09T05:23:38.348Z,100073.97
2024-05-09T05:24:40.207Z,100080.56
2024-05-09T05:25:42.478Z,100083.31
2024-05-09T05:26:44.260Z,100080.94
2024-05-09T05:27:46.079Z,100073.06
2024-05-09T05:28:47.879Z,100079.47
2024-05-09T05:29:49.721Z,100084.91
2024-05-09T05:30:51.545Z,100082.34
2024-05-09T05:31:53.475Z,100082.97
2024-05-09T05:32:55.397Z,100076.47
2024-05-09T05:33:57.423Z,100081.69
2024-05-09T05:34:59.298Z,100068.16
2024-05-09T05:36:00.967Z,100074.50
2024-05-09T05:37:02.742Z,100067.03
2024-05-09T05:38:07.310Z,100074.06
2024-05-09T05:39:09.066Z,100070.28
2024-05-09T05:40:14.636Z,100071.72
2024-05-09T05:41:19.217Z,100072.28
2024-05-09T05:42:21.008Z,100061.53
2024-05-09T05:43:22.957Z,100064.44
2024-05-09T05:44:24.699Z,100065.41
2024-05-09T05:45:26.541Z,100064.72
2024-05-09T05:46:28.279Z,100070.31
2024-05-09T05:47:30.121Z,100069.03
2024-05-09T05:48:32.170Z,100073.91
2024-05-09T05:49:33.997Z,100070.00
2024-05-09T05:50:37.919Z,100064.56
2024-05-09T05:51:40.504Z,100069.59
2024-05-09T05:52:42.244Z,100074.34
2024-05-09T05:53:43.958Z,100081.44
2024-05-09T05:54:45.731Z,100072.41
2024-05-09T05:55:47.509Z,100071.13
2024-05-09T05:56:49.248Z,100081.00
2024-05-09T05:57:50.963Z,100079.47
2024-05-09T05:58:52.818Z,100078.69
2024-05-09T05:59:54.571Z,100081.03
2024-05-09T06:00:56.373Z,100080.88
2024-05-09T06:01:58.134Z,100080.34
2024-05-09T06:03:01.015Z,100077.44
2024-05-09T06:04:02.853Z,100080.34
2024-05-09T06:05:05.123Z,100080.75
2024-05-09T06:06:07.029Z,100087.59
2024-05-09T06:07:08.836Z,100088.03
2024-05-09T06:08:10.678Z,100085.38
2024-05-09T06:09:12.455Z,100080.63
2024-05-09T06:10:21.236Z,100081.72
2024-05-09T06:11:27.247Z,100083.13
2024-05-09T06:12:29.100Z,100088.50
2024-05-09T06:13:30.819Z,100089.91
2024-05-09T06:14:32.625Z,100091.34
2024-05-09T06:15:34.573Z,100088.53
2024-05-09T06:16:36.275Z,100093.88
2024-05-09T06:17:38.102Z,100097.38
2024-05-09T06:18:40.289Z,100091.78
2024-05-09T06:19:42.217Z,100093.75
2024-05-09T06:20:44.477Z,100095.56
2024-05-09T06:21:46.328Z,100087.50
2024-05-09T06:22:48.040Z,100086.78
2024-05-09T06:23:50.039Z,100095.41
2024-05-09T06:24:51.794Z,100094.31
2024-05-09T06:25:53.571Z,100087.47
2024-05-09T06:26:55.338Z,100095.28
2024-05-09T06:27:57.055Z,100096.41
2024-05-09T06:29:01.004Z,100086.22
2024-05-09T06:30:02.993Z,100084.69
2024-05-09T06:31:05.413Z,100091.53
2024-05-09T06:32:07.431Z,100087.19
2024-05-09T06:33:12.152Z,100086.75
2024-05-09T06:34:18.543Z,100083.41
2024-05-09T06:35:20.473Z,100085.53
2024-05-09T06:36:22.176Z,100089.28
2024-05-09T06:37:23.878Z,100090.84
2024-05-09T06:38:26.360Z,100086.34
2024-05-09T06:39:28.061Z,100089.28
2024-05-09T06:40:37.132Z,100092.78
2024-05-09T06:41:41.143Z,100090.53
2024-05-09T06:42:42.920Z,100092.75
2024-05-09T06:43:44.735Z,100094.28
2024-05-09T06:44:46.503Z,100086.88
2024-05-09T06:45:49.082Z,100085.72
2024-05-09T06:46:51.165Z,100091.72
2024-05-09T06:47:53.126Z,100089.91
2024-05-09T06:48:56.314Z,100084.19
2024-05-09T06:49:58.279Z,100092.53
2024-05-09T06:51:00.059Z,100087.19
2024-05-09T06:52:01.795Z,100083.28
2024-05-09T06:53:03.799Z,100085.22
2024-05-09T06:54:09.153Z,100086.44
2024-05-09T06:55:10.825Z,100086.00
2024-05-09T06:56:12.790Z,100090.22
2024-05-09T06:57:14.559Z,100076.22
2024-05-09T06:58:16.417Z,100084.63
2024-05-09T06:59:18.251Z,100073.69
2024-05-09T07:00:27.454Z,100077.06
2024-05-09T07:01:36.601Z,100079.44
2024-05-09T07:02:38.522Z,100071.50
2024-05-09T07:03:41.713Z,100076.81
2024-05-09T07:04:43.535Z,100078.47
2024-05-09T07:05:46.964Z,100075.06
2024-05-09T07:06:49.606Z,100077.22
2024-05-09T07:07:51.381Z,100077.19
2024-05-09T07:08:53.820Z,100076.44
2024-05-09T07:09:55.652Z,100072.88
2024-05-09T07:10:57.501Z,100075.63
2024-05-09T07:11:59.511Z,100071.81
2024-05-09T07:13:01.409Z,100079.81
2024-05-09T07:14:03.152Z,100085.47
2024-05-09T07:15:05.288Z,100079.41
2024-05-09T07:16:07.157Z,100077.47
2024-05-09T07:17:09.179Z,100066.34
2024-05-09T07:18:12.450Z,100078.94
2024-05-09T07:19:14.867Z,100074.50
2024-05-09T07:20:23.533Z,100078.72
2024-05-09T07:21:33.749Z,100078.59
2024-05-09T07:22:35.506Z,100079.28
2024-05-09T07:23:37.490Z,100081.47
2024-05-09T07:24:39.228Z,100086.47
2024-05-09T07:25:41.788Z,100084.13
2024-05-09T07:26:43.798Z,100085.25
2024-05-09T07:27:45.505Z,100090.44
2024-05-09T07:28:47.336Z,100089.03
2024-05-09T07:29:49.070Z,100089.81
2024-05-09T07:30:50.892Z,100086.25
2024-05-09T07:31:52.647Z,100091.66
2024-05-09T07:32:54.472Z,100087.00
2024-05-09T07:33:57.075Z,100079.34
2024-05-09T07:34:58.902Z,100077.69
2024-05-09T07:36:00.561Z,100084.94
2024-05-09T07:37:02.638Z,100089.28
2024-05-09T07:38:04.615Z,100085.34
2024-05-09T07:39:06.318Z,100081.59
2024-05-09T07:40:11.991Z,100074.19
2024-05-09T07:41:13.843Z,100078.66
2024-05-09T07:42:15.571Z,100079.78
2024-05-09T07:43:17.302Z,100075.59
2024-05-09T07:44:20.401Z,100084.41
2024-05-09T07:45:41.649Z,100073.19
2024-05-09T07:47:47.931Z,100079.84
2024-05-09T07:50:54.585Z,100077.91
2024-05-09T07:52:23.416Z,100070.28
2024-05-09T07:53:21.870Z,100068.19
2024-05-09T07:53:38.377Z,100072.22
2024-05-09T07:54:40.892Z,100065.78
2024-05-09T07:55:42.881Z,100073.25
2024-05-09T07:56:44.942Z,100069.22
2024-05-09T07:57:46.913Z,100068.63
2024-05-09T07:58:50.171Z,100065.66
2024-05-09T07:59:51.886Z,100059.88
2024-05-09T08:00:54.403Z,100069.56
2024-05-09T08:01:56.368Z,100061.25
2024-05-09T08:02:58.156Z,100057.31
2024-05-09T08:03:59.951Z,100057.50
2024-05-09T08:05:01.857Z,100060.53
2024-05-09T08:06:03.895Z,100058.69
2024-05-09T08:07:05.675Z,100059.53
2024-05-09T08:08:07.625Z,100062.34
2024-05-09T08:09:13.887Z,100062.28
2024-05-09T08:10:24.539Z,100063.78
2024-05-09T08:11:29.086Z,100053.97
2024-05-09T08:12:30.950Z,100056.47
2024-05-09T08:13:32.613Z,100062.16
2024-05-09T08:14:34.391Z,100062.34
2024-05-09T08:15:36.131Z,100064.81
2024-05-09T08:16:37.921Z,100061.34
2024-05-09T08:17:39.755Z,100066.00
2024-05-09T08:18:41.669Z,100066.84
2024-05-09T08:19:43.619Z,100066.66
2024-05-09T08:20:48.496Z,100067.47
2024-05-09T08:21:50.231Z,100068.03
2024-05-09T08:22:51.990Z,100072.00
2024-05-09T08:23:53.733Z,100073.81
2024-05-09T08:24:55.405Z,100072.16
2024-05-09T08:25:57.101Z,100068.16
2024-05-09T08:26:58.815Z,100070.19
2024-05-09T08:28:00.681Z,100070.69
2024-05-09T08:29:02.962Z,100064.53
2024-05-09T08:30:06.330Z,100064.53
2024-05-09T08:31:09.811Z,100076.19
2024-05-09T08:32:11.637Z,100066.22
2024-05-09T08:33:13.477Z,100070.69
2024-05-09T08:34:15.460Z,100074.50
2024-05-09T08:35:17.442Z,100076.50
2024-05-09T08:36:19.165Z,100074.03
2024-05-09T08:37:23.482Z,100067.03
2024-05-09T08:38:27.767Z,100073.53
2024-05-09T08:39:29.586Z,100076.72
2024-05-09T08:40:35.410Z,100075.53
2024-05-09T08:41:42.658Z,100076.75
2024-05-09T08:42:51.869Z,100068.38
2024-05-09T08:43:54.116Z,100072.88
2024-05-09T08:44:56.483Z,100071.72
2024-05-09T08:45:59.560Z,100069.56
2024-05-09T08:47:02.797Z,100075.72
2024-05-09T08:48:08.359Z,100068.06
2024-05-09T08:49:10.972Z,100071.69
2024-05-09T08:50:28.587Z,100073.19
2024-05-09T08:51:37.651Z,100068.53
2024-05-09T08:52:39.421Z,100071.19
2024-05-09T08:53:41.151Z,100069.53
2024-05-09T08:54:42.997Z,100072.19
2024-05-09T08:55:46.502Z,100075.06
2024-05-09T08:56:49.327Z,100072.19
2024-05-09T08:57:52.344Z,100072.34
2024-05-09T08:59:01.160Z,100074.50
2024-05-09T09:00:09.937Z,100075.00
2024-05-09T09:01:14.810Z,100076.16
2024-05-09T09:02:18.189Z,100079.00
2024-05-09T09:03:24.863Z,100070.81
2024-05-09T09:04:28.883Z,100068.09
2024-05-09T09:05:31.671Z,100069.59
2024-05-09T09:06:35.547Z,100071.25
2024-05-09T09:07:40.382Z,100071.69
2024-05-09T09:08:42.391Z,100068.22
2024-05-09T09:09:45.719Z,100079.06
2024-05-09T09:10:48.200Z,100075.56
2024-05-09T09:11:50.282Z,100070.88
2024-05-09T09:12:55.663Z,100072.69
2024-05-09T09:13:57.463Z,100072.53
2024-05-09T09:14:59.364Z,100075.88
2024-05-09T09:16:01.188Z,100080.19
2024-05-09T09:17:13.123Z,100076.53
2024-05-09T09:18:18.578Z,100067.03
2024-05-09T09:19:23.411Z,100070.69
2024-05-09T09:20:35.610Z,100071.19
2024-05-09T09:21:38.705Z,100073.69
2024-05-09T09:22:40.452Z,100071.31
2024-05-09T09:23:43.276Z,100074.16
2024-05-09T09:24:45.659Z,100069.13
2024-05-09T09:25:47.530Z,100069.28
2024-05-09T09:26:49.291Z,100071.59
2024-05-09T09:27:51.403Z,100070.56
2024-05-09T09:28:53.387Z,100059.53
2024-05-09T09:29:56.817Z,100066.72
2024-05-09T09:31:02.476Z,100060.22
2024-05-09T09:32:05.056Z,100068.50
2024-05-09T09:33:08.667Z,100060.72
2024-05-09T09:34:10.676Z,100058.22
2024-05-09T09:35:12.600Z,100063.03
2024-05-09T09:36:14.419Z,100061.03
2024-05-09T09:37:22.139Z,100061.75
2024-05-09T09:38:23.948Z,100064.88
2024-05-09T09:39:27.934Z,100062.69
2024-05-09T09:40:37.259Z,100062.69
2024-05-09T09:41:46.369Z,100065.47
2024-05-09T09:42:57.661Z,100065.00
2024-05-09T09:44:00.945Z,100061.34
2024-05-09T09:45:05.556Z,100062.03
2024-05-09T09:46:12.251Z,100064.94
2024-05-09T09:47:16.519Z,100063.28
2024-05-09T09:48:21.217Z,100062.63
2024-05-09T09:49:27.480Z,100064.88
2024-05-09T09:50:34.326Z,100060.63
2024-05-09T09:51:37.851Z,100051.78
2024-05-09T09:52:39.708Z,100061.41
2024-05-09T09:53:43.600Z,100056.81
2024-05-09T09:54:46.117Z,100062.34
2024-05-09T09:55:48.581Z,100062.97
2024-05-09T09:56:51.468Z,100059.56
2024-05-09T09:57:56.157Z,100051.00
2024-05-09T09:58:59.388Z,100057.97
2024-05-09T10:00:01.252Z,100059.75
2024-05-09T10:01:03.030Z,100061.03
2024-05-09T10:02:05.366Z,100061.53
2024-05-09T10:03:07.256Z,100058.13
2024-05-09T10:04:10.365Z,100058.94
2024-05-09T10:05:12.395Z,100057.94
2024-05-09T10:06:15.397Z,100066.69
2024-05-09T10:07:20.442Z,100062.06
2024-05-09T10:08:23.848Z,100063.81
2024-05-09T10:09:26.375Z,100062.31
2024-05-09T10:10:33.228Z,100065.81
2024-05-09T10:11:41.941Z,100058.56
2024-05-09T10:13:08.486Z,100063.00
2024-05-09T10:14:10.519Z,100065.75
2024-05-09T10:15:12.290Z,100061.13
2024-05-09T10:16:20.830Z,100060.81
2024-05-09T10:17:22.649Z,100064.34
2024-05-09T10:18:26.100Z,100063.00
2024-05-09T10:19:30.169Z,100054.84
2024-05-09T10:20:44.987Z,100053.44
2024-05-09T10:21:46.997Z,100056.91
2024-05-09T10:22:49.355Z,100060.03
2024-05-09T10:24:03.246Z,100057.94
2024-05-09T10:25:07.286Z,100049.53
2024-05-09T10:26:09.051Z,100064.41
2024-05-09T10:27:10.798Z,100062.63
2024-05-09T10:28:12.862Z,100055.34
2024-05-09T10:29:19.242Z,100050.81
2024-05-09T10:30:29.647Z,100051.84
2024-05-09T10:31:41.037Z,100055.25
2024-05-09T10:32:44.795Z,100055.56
2024-05-09T10:33:52.345Z,100051.31
2024-05-09T10:35:13.347Z,100058.69
2024-05-09T10:36:21.666Z,100047.25
2024-05-09T10:37:25.227Z,100047.00
2024-05-09T10:38:27.161Z,100046.91
2024-05-09T10:39:35.171Z,100044.16
2024-05-09T10:40:38.114Z,100039.59
2024-05-09T10:41:39.929Z,100038.88
2024-05-09T10:42:41.865Z,100034.16
2024-05-09T10:43:43.720Z,100037.59
2024-05-09T10:44:45.464Z,100040.16
2024-05-09T10:45:47.693Z,100034.09
2024-05-09T10:46:49.940Z,100031.97
2024-05-09T10:47:51.952Z,100030.47
2024-05-09T10:48:54.263Z,100027.97
2024-05-09T10:49:56.966Z,100028.81
2024-05-09T10:50:58.927Z,100023.47
2024-05-09T10:52:03.805Z,100021.69
2024-05-09T10:53:05.595Z,100024.84
2024-05-09T10:54:07.309Z,100026.81
2024-05-09T10:55:09.098Z,100022.91
2024-05-09T10:56:14.015Z,100028.53
2024-05-09T10:57:16.076Z,100021.59
2024-05-09T10:58:18.272Z,100022.31
2024-05-09T10:59:20.021Z,100027.94
2024-05-09T11:00:27.754Z,100019.47
2024-05-09T11:01:35.520Z,100024.16
2024-05-09T11:02:37.608Z,100014.66
2024-05-09T11:03:40.133Z,100017.41
2024-05-09T11:04:42.492Z,100014.81
2024-05-09T11:05:45.872Z,100016.47
2024-05-09T11:06:47.916Z,100012.31
2024-05-09T11:07:50.318Z,100009.91
2024-05-09T11:08:52.475Z,100018.84
2024-05-09T11:09:54.532Z,100014.56
2024-05-09T11:10:56.496Z,100021.13
2024-05-09T11:11:58.643Z,100018.09
2024-05-09T11:13:00.550Z,100021.13
2024-05-09T11:14:13.814Z,100014.75
2024-05-09T11:15:15.531Z,100022.25
2024-05-09T11:16:19.121Z,100012.56
2024-05-09T11:17:21.313Z,100013.72
2024-05-09T11:18:26.441Z,100016.09
2024-05-09T11:19:39.275Z,100013.00
2024-05-09T11:20:41.242Z,100011.63
2024-05-09T11:21:51.115Z,100014.38
2024-05-09T11:22:53.007Z,100015.34
2024-05-09T11:23:55.106Z,100011.19
2024-05-09T11:24:56.962Z,100011.56
2024-05-09T11:25:59.332Z,100017.50
2024-05-09T11:27:03.951Z,100019.31
2024-05-09T11:28:07.716Z,100016.66
2024-05-09T11:29:09.475Z,100002.81
2024-05-09T11:30:26.687Z,100010.59
2024-05-09T11:31:33.546Z,100010.47
2024-05-09T11:32:37.613Z,100010.78
2024-05-09T11:33:43.546Z,100000.91
2024-05-09T11:34:45.351Z,100009.53
2024-05-09T11:35:47.223Z,100005.25
2024-05-09T11:36:49.005Z,100002.56
2024-05-09T11:37:50.883Z,100000.22
2024-05-09T11:38:52.679Z,100000.00
2024-05-09T11:39:54.468Z,99994.00
2024-05-09T11:40:56.311Z,99998.91
2024-05-09T11:41:58.254Z,100003.47
2024-05-09T11:42:59.960Z,99998.13
2024-05-09T11:44:02.075Z,99998.53
2024-05-09T11:45:04.116Z,99993.50
2024-05-09T11:46:06.107Z,99993.16
2024-05-09T11:47:07.947Z,99991.31
2024-05-09T11:48:09.863Z,99995.84
2024-05-09T11:49:11.858Z,99994.75
2024-05-09T11:50:22.461Z,99992.06
2024-05-09T11:51:29.198Z,100000.34
2024-05-09T11:52:30.948Z,99996.00
2024-05-09T11:53:32.645Z,99996.06
2024-05-09T11:54:34.388Z,99995.16
2024-05-09T11:55:36.241Z,99995.53
2024-05-09T11:56:38.147Z,99993.16
2024-05-09T11:57:39.981Z,99996.94
2024-05-09T11:58:41.758Z,99991.41
2024-05-09T11:59:43.594Z,99990.19
2024-05-09T12:00:45.584Z,99997.09
2024-05-09T12:01:47.615Z,99985.28
2024-05-09T12:02:49.385Z,99987.31
2024-05-09T12:03:51.209Z,99988.34
2024-05-09T12:04:53.153Z,99989.84
2024-05-09T12:05:55.190Z,99983.47
2024-05-09T12:06:57.076Z,99987.75
2024-05-09T12:07:58.891Z,99989.09